الصفحة الرئيسية
METAR-TAF:

METAR-TAF

مطار :

Broome, أستراليا

دائرة عرض: 17-57S, خط طول: 122-13E, ارتفاع: 17 متر

مراقبة الطقس الحالي

تاريخ ووقت الإصدار 21 دقيقة قبل الساعة 13:30UTC
ريح 6 عقدة من الغرب/الشمال الغربي
درجة الحرارة 31°درجة مئوية
الرطوبة 71%
ضغط 1009 hPa
الرؤية 10 كم أو أكثر

METAR: YBRM 061330Z AUTO 29006KT 9999 // NCD 31/25 Q1009 RF00.0/000.0

زمن: 21:51 (13:51 UTC)

توقعات

تاريخ ووقت الإصدار 2ساعات و 46 دقيقة قبل الساعة 11:05UTC
التوقعات صالحة من06 الساعة 12 UTC إلى 07 الساعة 12 UTC
ريح 10 عقدة من الغرب/الشمال الغربي
الرؤية 10 كم أو أكثر
الغيوم لا تقل 1500 م ولا وجود لمزنة ركامية السحاب الأسود
من 06 الساعة 1800 UTC
ريح 6 عقدة من الشمال الغربي
الرؤية 10 كم أو أكثر
غيوم قليلة على ارتفاع 1500 قدم
من 07 الساعة 0200 UTC
ريح 12 عقدة من الغرب/الشمال الغربي
الرؤية 10 كم أو أكثر
غيوم قليلة على ارتفاع 2500 قدم

TAF: YBRM 061105Z 0612/0712 29010KT CAVOK FM061800 32006KT 9999 FEW015 FM070200 30012KT 9999 FEW025

أرصاد الطقس والتوقعات من أكثر من 4000 مطار (تقارير الطقس للمطار METAR والتنبؤ بالطقس بالمطارTAF).

المحطات المتاحة هي النقط الصفراء والحمراء على الخريطة.

حرك المؤشر فوق النقطة لمعرفة اسم المحطة.

ثم انقر لمعرفة أرصاد وتوقعات الطقس.

لتغيير الخارطة: اضغط على الأزرار الخضراء مع رمز الصليب الأسود للتكبير. على الزر الأخضر مع شرطة للتصغير، أو على الأسهم الخضراء للخرائط المجاورة.


METAR-TAF: